Airfield :
LOGIN :

Register | Disclaimer

   EN    FR    IT 

 










Legend :    VFR   Marginal VFR   IFR   Intensive IFR   Very Intensive IFR
Visi :
Ceiling :
>= 8 km
>= 3000ft
5 to 8 km
1000 to 3000 ft
1500m to 5 km
500 to 1000 ft
800 to 1500m
200 to 500 ft
< 800m
< 200 ft
Symbols :   Thunderstorms  Fog  Heavy snow  Heavy precipitations  Wind > 20 kt
SIGMETs :     Misc.  Thunderstorms  Icing  Turbulence  Mountain Waves  Volcanic Ashes






- Airport Elevation : 72 ft
- IATA code : UDE


EHVK - Volkel Airbase

CURRENT METAR :
  • 170755Z AUTO VRB01KT 5000 BR OVC250 M00/M01 Q1012 WHT

EXPIRED METARs :
  • 170728Z AUTO VRB02KT 7000 BR OVC270 M00/M00 Q1012 WHT
  • 170725Z AUTO VRB01KT 8000 BR OVC270 M00/M00 Q1012 BLU
  • 170655Z AUTO 12003KT 070V170 9000 BR OVC270 00/M00 Q1012 BLU
  • 170635Z AUTO 12003KT 100V160 9000 BR OVC270 00/M00 Q1012 BLU
  • 170625Z AUTO 11005KT 8000 BR SCT280 00/M00 Q1012 BLU
  • 170555Z AUTO 09003KT 080V150 6000 BR BKN320 M00/M01 Q1011 WHT
  • 170526Z AUTO 10003KT 090V150 7000 BR NCD M00/M01 Q1011 WHT
  • 170525Z AUTO 11003KT 8000 BR NCD M00/M01 Q1011 BLU
  • 170506Z AUTO 10003KT 9000 BR SCT330 M00/M01 Q1011 BLU

TAF TAF EHVK
Valid from the 17 at 06:00 until the 17 at 18:00 UTC


170549Z 1706/1718 VRB02KT CAVOK
PROB40
TEMPO 1706/1708 2000 BR MIFG
BECMG 1709/1711 06004KT
BECMG 1715/1717 36008KT



MET'MAP, your aeronautical weather chart ! - Copyright ORBIFLY December 2007 - Disclaimer

ORBIFLY MET'MAP TEAM :

Programming & Development : Alexandra Zaïnal
Concept & Development : Baudouin d'Aumeries
Co-Development & Prog : Marc-Olivier Méhu
Technical & hardware support : Manuel Goepfert

Contact : metmap@orbifly.com




SOURCES & CREDITS :

   NOAA